Circleville, Texas
Current Conditions -  °F | °C
As of 10:51 AM on Saturday 25 Oct 2014 (Local Time) from KATT Reporting Station
Clear Clear  
Wind Chill: 78°   Ceiling: Unl
Heat Index: 80°   Visibility: 10mi
Dew Point: 61°   Wind: 5mph
Humidity: 56%   Direction: NA
Pressure: 30.19"   Gusts: NA
Location:  30.265°N, 97.9624°W
Report Text: KATT 251551Z AUTO VRB04KT 10SM CLR 26/16 A3019 RMK AO2 SLP214 T02560161
Loading
Personal Weather Stations






























Interactive Weather Map
Tropical Storm Tracking
New forecast layout! Learn more

10-Day Weather Forecast

Advertisements
Track Severe Weather on mobile